sensor_id;sensor_type;location;lat;lon;timestamp;P1;durP1;ratioP1;P2;durP2;ratioP2
7795;SDS011;3942;51.518;6.912;2023-03-03T00:04:21;48.95;;;21.05;;
7795;SDS011;3942;51.518;6.912;2023-03-03T00:09:23;44.95;;;20.35;;
7795;SDS011;3942;51.518;6.912;2023-03-03T00:14:27;37.42;;;19.17;;
7795;SDS011;3942;51.518;6.912;2023-03-03T00:19:31;41.47;;;18.60;;
7795;SDS011;3942;51.518;6.912;2023-03-03T00:24:38;47.55;;;20.83;;
7795;SDS011;3942;51.518;6.912;2023-03-03T00:29:41;26.25;;;12.30;;
7795;SDS011;3942;51.518;6.912;2023-03-03T00:34:46;46.70;;;21.00;;
7795;SDS011;3942;51.518;6.912;2023-03-03T00:39:48;46.80;;;21.50;;
7795;SDS011;3942;51.518;6.912;2023-03-03T00:44:56;33.13;;;15.32;;
7795;SDS011;3942;51.518;6.912;2023-03-03T00:50:13;35.78;;;17.05;;
7795;SDS011;3942;51.518;6.912;2023-03-03T00:55:25;35.92;;;14.13;;
7795;SDS011;3942;51.518;6.912;2023-03-03T01:00:28;28.88;;;13.75;;
7795;SDS011;3942;51.518;6.912;2023-03-03T01:05:30;33.28;;;14.13;;
7795;SDS011;3942;51.518;6.912;2023-03-03T01:10:35;35.63;;;18.02;;
7795;SDS011;3942;51.518;6.912;2023-03-03T01:15:40;49.38;;;22.25;;
7795;SDS011;3942;51.518;6.912;2023-03-03T01:20:43;40.45;;;16.00;;
7795;SDS011;3942;51.518;6.912;2023-03-03T01:25:45;41.78;;;17.75;;
7795;SDS011;3942;51.518;6.912;2023-03-03T01:30:48;51.85;;;20.52;;
7795;SDS011;3942;51.518;6.912;2023-03-03T01:35:50;50.83;;;21.85;;
7795;SDS011;3942;51.518;6.912;2023-03-03T01:40:53;39.40;;;16.55;;
7795;SDS011;3942;51.518;6.912;2023-03-03T01:51:34;45.30;;;18.63;;
7795;SDS011;3942;51.518;6.912;2023-03-03T01:56:39;38.90;;;16.00;;
7795;SDS011;3942;51.518;6.912;2023-03-03T02:01:44;32.97;;;15.10;;
7795;SDS011;3942;51.518;6.912;2023-03-03T02:06:49;32.83;;;14.57;;
7795;SDS011;3942;51.518;6.912;2023-03-03T02:11:57;42.55;;;16.08;;
7795;SDS011;3942;51.518;6.912;2023-03-03T02:17:02;44.33;;;16.95;;
7795;SDS011;3942;51.518;6.912;2023-03-03T02:22:04;39.58;;;15.63;;
7795;SDS011;3942;51.518;6.912;2023-03-03T02:27:08;33.53;;;14.75;;
7795;SDS011;3942;51.518;6.912;2023-03-03T02:32:10;48.28;;;19.63;;
7795;SDS011;3942;51.518;6.912;2023-03-03T02:37:12;44.10;;;16.95;;
7795;SDS011;3942;51.518;6.912;2023-03-03T02:42:17;51.35;;;18.10;;
7795;SDS011;3942;51.518;6.912;2023-03-03T02:47:21;37.25;;;15.60;;
7795;SDS011;3942;51.518;6.912;2023-03-03T02:52:23;40.30;;;16.33;;
7795;SDS011;3942;51.518;6.912;2023-03-03T02:57:27;40.05;;;13.93;;
7795;SDS011;3942;51.518;6.912;2023-03-03T03:02:29;52.63;;;20.25;;
7795;SDS011;3942;51.518;6.912;2023-03-03T03:07:31;50.45;;;17.55;;
7795;SDS011;3942;51.518;6.912;2023-03-03T03:12:34;27.38;;;13.02;;
7795;SDS011;3942;51.518;6.912;2023-03-03T03:17:36;44.75;;;18.33;;
7795;SDS011;3942;51.518;6.912;2023-03-03T03:22:38;45.35;;;17.65;;
7795;SDS011;3942;51.518;6.912;2023-03-03T03:27:42;49.22;;;18.35;;
7795;SDS011;3942;51.518;6.912;2023-03-03T03:32:43;46.72;;;18.55;;
7795;SDS011;3942;51.518;6.912;2023-03-03T03:37:45;46.28;;;17.67;;
7795;SDS011;3942;51.518;6.912;2023-03-03T03:42:49;40.83;;;16.88;;
7795;SDS011;3942;51.518;6.912;2023-03-03T03:47:51;56.00;;;23.33;;
7795;SDS011;3942;51.518;6.912;2023-03-03T03:52:53;71.38;;;26.20;;
7795;SDS011;3942;51.518;6.912;2023-03-03T03:57:57;74.63;;;32.22;;
7795;SDS011;3942;51.518;6.912;2023-03-03T04:02:59;68.03;;;28.55;;
7795;SDS011;3942;51.518;6.912;2023-03-03T04:08:01;68.60;;;27.20;;
7795;SDS011;3942;51.518;6.912;2023-03-03T04:13:05;57.17;;;22.80;;
7795;SDS011;3942;51.518;6.912;2023-03-03T04:18:06;54.10;;;20.88;;
7795;SDS011;3942;51.518;6.912;2023-03-03T04:23:09;39.85;;;16.80;;
7795;SDS011;3942;51.518;6.912;2023-03-03T04:28:13;50.75;;;20.77;;
7795;SDS011;3942;51.518;6.912;2023-03-03T04:33:15;42.20;;;13.02;;
7795;SDS011;3942;51.518;6.912;2023-03-03T04:38:17;44.70;;;15.80;;
7795;SDS011;3942;51.518;6.912;2023-03-03T04:43:21;50.70;;;18.17;;
7795;SDS011;3942;51.518;6.912;2023-03-03T04:48:22;67.63;;;23.42;;
7795;SDS011;3942;51.518;6.912;2023-03-03T04:53:25;39.20;;;14.48;;
7795;SDS011;3942;51.518;6.912;2023-03-03T04:58:28;56.83;;;25.27;;
7795;SDS011;3942;51.518;6.912;2023-03-03T05:03:30;66.38;;;20.70;;
7795;SDS011;3942;51.518;6.912;2023-03-03T05:08:32;72.15;;;23.40;;
7795;SDS011;3942;51.518;6.912;2023-03-03T05:13:36;75.47;;;25.73;;
7795;SDS011;3942;51.518;6.912;2023-03-03T05:18:37;71.07;;;26.48;;
7795;SDS011;3942;51.518;6.912;2023-03-03T05:23:40;68.78;;;26.35;;
7795;SDS011;3942;51.518;6.912;2023-03-03T05:28:46;60.10;;;21.25;;
7795;SDS011;3942;51.518;6.912;2023-03-03T05:33:48;63.67;;;22.00;;
7795;SDS011;3942;51.518;6.912;2023-03-03T05:38:51;66.18;;;25.98;;
7795;SDS011;3942;51.518;6.912;2023-03-03T05:43:54;70.10;;;23.13;;
7795;SDS011;3942;51.518;6.912;2023-03-03T05:48:56;70.05;;;23.75;;
7795;SDS011;3942;51.518;6.912;2023-03-03T05:53:58;49.78;;;16.23;;
7795;SDS011;3942;51.518;6.912;2023-03-03T05:59:01;66.93;;;24.35;;
7795;SDS011;3942;51.518;6.912;2023-03-03T06:04:04;49.13;;;18.67;;
7795;SDS011;3942;51.518;6.912;2023-03-03T06:09:06;73.40;;;24.25;;
7795;SDS011;3942;51.518;6.912;2023-03-03T06:14:09;49.53;;;18.90;;
7795;SDS011;3942;51.518;6.912;2023-03-03T06:19:11;79.10;;;29.45;;
7795;SDS011;3942;51.518;6.912;2023-03-03T06:24:14;66.13;;;26.73;;
7795;SDS011;3942;51.518;6.912;2023-03-03T06:29:17;47.67;;;17.52;;
7795;SDS011;3942;51.518;6.912;2023-03-03T06:34:19;61.00;;;23.92;;
7795;SDS011;3942;51.518;6.912;2023-03-03T06:39:21;45.60;;;18.40;;
7795;SDS011;3942;51.518;6.912;2023-03-03T06:44:25;44.90;;;16.70;;
7795;SDS011;3942;51.518;6.912;2023-03-03T06:49:27;58.72;;;22.95;;
7795;SDS011;3942;51.518;6.912;2023-03-03T06:54:29;69.00;;;22.88;;
7795;SDS011;3942;51.518;6.912;2023-03-03T06:59:32;61.03;;;21.75;;
7795;SDS011;3942;51.518;6.912;2023-03-03T07:04:34;79.28;;;27.88;;
7795;SDS011;3942;51.518;6.912;2023-03-03T07:09:38;61.47;;;21.10;;
7795;SDS011;3942;51.518;6.912;2023-03-03T07:14:42;62.65;;;22.25;;
7795;SDS011;3942;51.518;6.912;2023-03-03T07:19:45;65.00;;;24.60;;
7795;SDS011;3942;51.518;6.912;2023-03-03T07:24:48;53.72;;;17.95;;
7795;SDS011;3942;51.518;6.912;2023-03-03T07:29:53;61.20;;;23.10;;
7795;SDS011;3942;51.518;6.912;2023-03-03T07:34:56;68.35;;;24.23;;
7795;SDS011;3942;51.518;6.912;2023-03-03T07:39:58;64.47;;;23.70;;
7795;SDS011;3942;51.518;6.912;2023-03-03T07:45:03;65.68;;;23.77;;
7795;SDS011;3942;51.518;6.912;2023-03-03T07:50:19;63.50;;;23.45;;
7795;SDS011;3942;51.518;6.912;2023-03-03T07:55:26;60.75;;;21.20;;
7795;SDS011;3942;51.518;6.912;2023-03-03T08:06:25;68.65;;;24.80;;
7795;SDS011;3942;51.518;6.912;2023-03-03T08:11:36;84.05;;;31.83;;
7795;SDS011;3942;51.518;6.912;2023-03-03T08:16:38;77.47;;;28.73;;
7795;SDS011;3942;51.518;6.912;2023-03-03T08:21:42;53.08;;;21.02;;
7795;SDS011;3942;51.518;6.912;2023-03-03T08:26:44;67.55;;;24.08;;
7795;SDS011;3942;51.518;6.912;2023-03-03T08:31:46;46.53;;;14.55;;
7795;SDS011;3942;51.518;6.912;2023-03-03T08:36:50;64.70;;;24.17;;
7795;SDS011;3942;51.518;6.912;2023-03-03T08:41:52;60.10;;;23.85;;
7795;SDS011;3942;51.518;6.912;2023-03-03T08:46:54;65.22;;;21.50;;
7795;SDS011;3942;51.518;6.912;2023-03-03T08:51:57;81.95;;;25.98;;
7795;SDS011;3942;51.518;6.912;2023-03-03T08:56:59;48.90;;;19.17;;
7795;SDS011;3942;51.518;6.912;2023-03-03T09:02:02;66.68;;;24.02;;
7795;SDS011;3942;51.518;6.912;2023-03-03T09:07:05;73.28;;;24.23;;
7795;SDS011;3942;51.518;6.912;2023-03-03T09:12:12;62.17;;;23.08;;
7795;SDS011;3942;51.518;6.912;2023-03-03T09:17:18;44.50;;;17.02;;
7795;SDS011;3942;51.518;6.912;2023-03-03T09:22:28;67.60;;;22.30;;
7795;SDS011;3942;51.518;6.912;2023-03-03T09:27:35;66.45;;;23.02;;
7795;SDS011;3942;51.518;6.912;2023-03-03T09:32:38;43.85;;;17.50;;
7795;SDS011;3942;51.518;6.912;2023-03-03T09:37:43;54.58;;;17.33;;
7795;SDS011;3942;51.518;6.912;2023-03-03T09:42:48;48.00;;;17.75;;
7795;SDS011;3942;51.518;6.912;2023-03-03T09:48:16;60.50;;;21.13;;
7795;SDS011;3942;51.518;6.912;2023-03-03T09:53:43;46.03;;;16.42;;
7795;SDS011;3942;51.518;6.912;2023-03-03T09:59:08;61.42;;;22.15;;
7795;SDS011;3942;51.518;6.912;2023-03-03T10:04:32;46.78;;;17.02;;
7795;SDS011;3942;51.518;6.912;2023-03-03T10:09:52;60.88;;;21.10;;
7795;SDS011;3942;51.518;6.912;2023-03-03T10:15:10;64.10;;;23.83;;
7795;SDS011;3942;51.518;6.912;2023-03-03T10:20:28;82.15;;;30.30;;
7795;SDS011;3942;51.518;6.912;2023-03-03T10:25:38;67.63;;;25.73;;
7795;SDS011;3942;51.518;6.912;2023-03-03T10:30:43;69.07;;;21.05;;
7795;SDS011;3942;51.518;6.912;2023-03-03T10:35:58;64.82;;;22.42;;
7795;SDS011;3942;51.518;6.912;2023-03-03T10:41:18;72.32;;;23.23;;
7795;SDS011;3942;51.518;6.912;2023-03-03T10:46:24;66.78;;;25.48;;
7795;SDS011;3942;51.518;6.912;2023-03-03T10:51:40;79.28;;;28.73;;
7795;SDS011;3942;51.518;6.912;2023-03-03T10:56:56;64.20;;;24.83;;
7795;SDS011;3942;51.518;6.912;2023-03-03T11:02:04;57.92;;;20.83;;
7795;SDS011;3942;51.518;6.912;2023-03-03T11:07:14;52.55;;;19.25;;
7795;SDS011;3942;51.518;6.912;2023-03-03T11:12:25;83.28;;;32.30;;
7795;SDS011;3942;51.518;6.912;2023-03-03T11:17:36;35.45;;;14.80;;
7795;SDS011;3942;51.518;6.912;2023-03-03T11:22:53;61.13;;;23.25;;
7795;SDS011;3942;51.518;6.912;2023-03-03T11:28:10;42.40;;;16.73;;
7795;SDS011;3942;51.518;6.912;2023-03-03T11:33:22;51.90;;;18.15;;
7795;SDS011;3942;51.518;6.912;2023-03-03T11:38:34;47.85;;;20.75;;
7795;SDS011;3942;51.518;6.912;2023-03-03T11:43:48;56.65;;;20.08;;
7795;SDS011;3942;51.518;6.912;2023-03-03T11:48:53;40.95;;;17.05;;
7795;SDS011;3942;51.518;6.912;2023-03-03T11:54:02;46.40;;;18.53;;
7795;SDS011;3942;51.518;6.912;2023-03-03T12:04:40;47.83;;;18.38;;
7795;SDS011;3942;51.518;6.912;2023-03-03T12:09:47;56.58;;;21.88;;
7795;SDS011;3942;51.518;6.912;2023-03-03T12:20:24;34.22;;;14.23;;
7795;SDS011;3942;51.518;6.912;2023-03-03T12:25:33;38.08;;;15.98;;
7795;SDS011;3942;51.518;6.912;2023-03-03T12:30:53;32.42;;;15.00;;
7795;SDS011;3942;51.518;6.912;2023-03-03T12:36:01;36.25;;;15.30;;
7795;SDS011;3942;51.518;6.912;2023-03-03T12:41:15;38.55;;;16.92;;
7795;SDS011;3942;51.518;6.912;2023-03-03T12:46:23;39.17;;;17.55;;
7795;SDS011;3942;51.518;6.912;2023-03-03T12:51:33;36.30;;;16.60;;
7795;SDS011;3942;51.518;6.912;2023-03-03T12:56:44;43.30;;;17.42;;
7795;SDS011;3942;51.518;6.912;2023-03-03T13:07:34;38.75;;;16.60;;
7795;SDS011;3942;51.518;6.912;2023-03-03T13:12:43;44.90;;;19.73;;
7795;SDS011;3942;51.518;6.912;2023-03-03T13:17:50;42.72;;;18.77;;
7795;SDS011;3942;51.518;6.912;2023-03-03T13:22:56;48.85;;;21.30;;
7795;SDS011;3942;51.518;6.912;2023-03-03T13:28:01;48.22;;;20.27;;
7795;SDS011;3942;51.518;6.912;2023-03-03T13:33:09;46.28;;;22.65;;
7795;SDS011;3942;51.518;6.912;2023-03-03T13:38:12;58.22;;;27.30;;
7795;SDS011;3942;51.518;6.912;2023-03-03T13:43:21;52.75;;;25.90;;
7795;SDS011;3942;51.518;6.912;2023-03-03T13:48:30;40.38;;;20.58;;
7795;SDS011;3942;51.518;6.912;2023-03-03T13:53:51;49.05;;;23.98;;
7795;SDS011;3942;51.518;6.912;2023-03-03T13:59:00;49.22;;;23.63;;
7795;SDS011;3942;51.518;6.912;2023-03-03T14:04:10;53.67;;;23.38;;
7795;SDS011;3942;51.518;6.912;2023-03-03T14:09:20;46.20;;;21.05;;
7795;SDS011;3942;51.518;6.912;2023-03-03T14:14:34;45.90;;;21.88;;
7795;SDS011;3942;51.518;6.912;2023-03-03T14:19:50;46.10;;;21.02;;
7795;SDS011;3942;51.518;6.912;2023-03-03T14:25:00;25.23;;;11.15;;
7795;SDS011;3942;51.518;6.912;2023-03-03T14:35:30;43.38;;;19.73;;
7795;SDS011;3942;51.518;6.912;2023-03-03T14:40:34;38.20;;;19.23;;
7795;SDS011;3942;51.518;6.912;2023-03-03T14:45:38;40.67;;;19.05;;
7795;SDS011;3942;51.518;6.912;2023-03-03T14:50:43;38.03;;;19.40;;
7795;SDS011;3942;51.518;6.912;2023-03-03T14:55:49;38.33;;;18.77;;
7795;SDS011;3942;51.518;6.912;2023-03-03T15:01:05;40.08;;;19.23;;
7795;SDS011;3942;51.518;6.912;2023-03-03T15:06:10;39.15;;;17.35;;
7795;SDS011;3942;51.518;6.912;2023-03-03T15:11:17;25.20;;;11.02;;
7795;SDS011;3942;51.518;6.912;2023-03-03T15:16:28;26.30;;;12.10;;
7795;SDS011;3942;51.518;6.912;2023-03-03T15:21:33;34.00;;;15.20;;
7795;SDS011;3942;51.518;6.912;2023-03-03T15:26:41;32.38;;;14.90;;
7795;SDS011;3942;51.518;6.912;2023-03-03T15:31:47;28.08;;;11.48;;
7795;SDS011;3942;51.518;6.912;2023-03-03T15:36:57;28.20;;;12.73;;
7795;SDS011;3942;51.518;6.912;2023-03-03T15:42:09;37.70;;;15.55;;
7795;SDS011;3942;51.518;6.912;2023-03-03T15:47:21;31.05;;;12.85;;
7795;SDS011;3942;51.518;6.912;2023-03-03T15:52:35;27.70;;;11.65;;
7795;SDS011;3942;51.518;6.912;2023-03-03T15:57:41;29.95;;;12.73;;
7795;SDS011;3942;51.518;6.912;2023-03-03T16:02:53;29.15;;;13.75;;
7795;SDS011;3942;51.518;6.912;2023-03-03T16:08:01;29.27;;;11.82;;
7795;SDS011;3942;51.518;6.912;2023-03-03T16:13:20;31.67;;;13.35;;
7795;SDS011;3942;51.518;6.912;2023-03-03T16:18:31;28.90;;;13.38;;
7795;SDS011;3942;51.518;6.912;2023-03-03T16:23:45;33.08;;;15.65;;
7795;SDS011;3942;51.518;6.912;2023-03-03T16:29:03;30.88;;;13.20;;
7795;SDS011;3942;51.518;6.912;2023-03-03T16:34:23;30.60;;;13.35;;
7795;SDS011;3942;51.518;6.912;2023-03-03T16:39:35;32.78;;;14.50;;
7795;SDS011;3942;51.518;6.912;2023-03-03T16:44:39;34.88;;;13.27;;
7795;SDS011;3942;51.518;6.912;2023-03-03T16:49:52;29.88;;;14.60;;
7795;SDS011;3942;51.518;6.912;2023-03-03T16:54:58;33.40;;;14.25;;
7795;SDS011;3942;51.518;6.912;2023-03-03T17:00:08;31.25;;;13.68;;
7795;SDS011;3942;51.518;6.912;2023-03-03T17:05:16;35.47;;;15.50;;
7795;SDS011;3942;51.518;6.912;2023-03-03T17:10:29;32.35;;;14.52;;
7795;SDS011;3942;51.518;6.912;2023-03-03T17:15:38;38.17;;;16.70;;
7795;SDS011;3942;51.518;6.912;2023-03-03T17:20:49;33.60;;;15.57;;
7795;SDS011;3942;51.518;6.912;2023-03-03T17:25:59;30.73;;;15.75;;
7795;SDS011;3942;51.518;6.912;2023-03-03T17:31:12;43.92;;;20.40;;
7795;SDS011;3942;51.518;6.912;2023-03-03T17:36:19;34.88;;;15.82;;
7795;SDS011;3942;51.518;6.912;2023-03-03T17:41:25;32.47;;;14.20;;
7795;SDS011;3942;51.518;6.912;2023-03-03T17:46:32;31.80;;;14.18;;
7795;SDS011;3942;51.518;6.912;2023-03-03T17:51:43;43.70;;;18.92;;
7795;SDS011;3942;51.518;6.912;2023-03-03T17:57:16;29.77;;;15.02;;
7795;SDS011;3942;51.518;6.912;2023-03-03T18:02:40;34.78;;;16.98;;
7795;SDS011;3942;51.518;6.912;2023-03-03T18:08:02;41.88;;;17.38;;
7795;SDS011;3942;51.518;6.912;2023-03-03T18:13:11;40.47;;;18.10;;
7795;SDS011;3942;51.518;6.912;2023-03-03T18:18:26;36.55;;;17.58;;
7795;SDS011;3942;51.518;6.912;2023-03-03T18:28:46;34.53;;;17.70;;
7795;SDS011;3942;51.518;6.912;2023-03-03T18:34:02;33.30;;;16.92;;
7795;SDS011;3942;51.518;6.912;2023-03-03T18:39:08;30.80;;;15.60;;
7795;SDS011;3942;51.518;6.912;2023-03-03T18:44:26;29.48;;;15.85;;
7795;SDS011;3942;51.518;6.912;2023-03-03T19:00:27;25.17;;;11.20;;
7795;SDS011;3942;51.518;6.912;2023-03-03T19:05:33;25.40;;;11.23;;
7795;SDS011;3942;51.518;6.912;2023-03-03T19:10:50;26.40;;;12.63;;
7795;SDS011;3942;51.518;6.912;2023-03-03T19:15:56;25.50;;;11.95;;
7795;SDS011;3942;51.518;6.912;2023-03-03T19:21:00;23.58;;;12.13;;
7795;SDS011;3942;51.518;6.912;2023-03-03T19:31:38;27.65;;;15.40;;
7795;SDS011;3942;51.518;6.912;2023-03-03T19:36:46;36.80;;;17.40;;
7795;SDS011;3942;51.518;6.912;2023-03-03T19:41:53;25.73;;;12.18;;
7795;SDS011;3942;51.518;6.912;2023-03-03T19:47:00;24.30;;;13.48;;
7795;SDS011;3942;51.518;6.912;2023-03-03T19:52:06;34.85;;;15.50;;
7795;SDS011;3942;51.518;6.912;2023-03-03T19:57:10;31.90;;;16.10;;
7795;SDS011;3942;51.518;6.912;2023-03-03T20:02:27;28.83;;;15.02;;
7795;SDS011;3942;51.518;6.912;2023-03-03T20:07:42;45.92;;;22.33;;
7795;SDS011;3942;51.518;6.912;2023-03-03T20:13:00;24.50;;;12.43;;
7795;SDS011;3942;51.518;6.912;2023-03-03T20:23:47;14.57;;;8.40;;
7795;SDS011;3942;51.518;6.912;2023-03-03T20:34:35;15.80;;;7.15;;
7795;SDS011;3942;51.518;6.912;2023-03-03T20:39:51;12.00;;;6.93;;
7795;SDS011;3942;51.518;6.912;2023-03-03T20:45:02;13.30;;;6.03;;
7795;SDS011;3942;51.518;6.912;2023-03-03T20:50:18;12.23;;;6.15;;
7795;SDS011;3942;51.518;6.912;2023-03-03T20:55:28;9.88;;;6.38;;
7795;SDS011;3942;51.518;6.912;2023-03-03T21:00:39;9.25;;;4.90;;
7795;SDS011;3942;51.518;6.912;2023-03-03T21:05:55;12.30;;;5.78;;
7795;SDS011;3942;51.518;6.912;2023-03-03T21:10:59;12.43;;;6.70;;
7795;SDS011;3942;51.518;6.912;2023-03-03T21:16:05;12.55;;;8.05;;
7795;SDS011;3942;51.518;6.912;2023-03-03T21:21:09;10.00;;;5.70;;
7795;SDS011;3942;51.518;6.912;2023-03-03T21:26:13;8.73;;;4.88;;
7795;SDS011;3942;51.518;6.912;2023-03-03T21:31:15;8.73;;;5.72;;
7795;SDS011;3942;51.518;6.912;2023-03-03T21:36:18;12.40;;;6.63;;
7795;SDS011;3942;51.518;6.912;2023-03-03T21:41:23;9.02;;;5.70;;
7795;SDS011;3942;51.518;6.912;2023-03-03T21:46:25;14.00;;;8.18;;
7795;SDS011;3942;51.518;6.912;2023-03-03T21:51:28;11.30;;;6.47;;
7795;SDS011;3942;51.518;6.912;2023-03-03T21:56:31;12.80;;;6.43;;
7795;SDS011;3942;51.518;6.912;2023-03-03T22:01:34;12.38;;;5.43;;
7795;SDS011;3942;51.518;6.912;2023-03-03T22:06:36;12.25;;;5.90;;
7795;SDS011;3942;51.518;6.912;2023-03-03T22:11:40;11.50;;;4.85;;
7795;SDS011;3942;51.518;6.912;2023-03-03T22:16:42;14.82;;;5.97;;
7795;SDS011;3942;51.518;6.912;2023-03-03T22:21:44;8.50;;;4.95;;
7795;SDS011;3942;51.518;6.912;2023-03-03T22:26:48;11.45;;;4.47;;
7795;SDS011;3942;51.518;6.912;2023-03-03T22:31:50;15.73;;;6.63;;
7795;SDS011;3942;51.518;6.912;2023-03-03T22:36:52;23.20;;;6.40;;
7795;SDS011;3942;51.518;6.912;2023-03-03T22:41:56;13.80;;;5.45;;
7795;SDS011;3942;51.518;6.912;2023-03-03T22:46:58;14.13;;;4.47;;
7795;SDS011;3942;51.518;6.912;2023-03-03T22:52:00;20.95;;;8.05;;
7795;SDS011;3942;51.518;6.912;2023-03-03T22:57:03;14.52;;;4.57;;
7795;SDS011;3942;51.518;6.912;2023-03-03T23:02:05;18.83;;;4.65;;
7795;SDS011;3942;51.518;6.912;2023-03-03T23:07:08;21.15;;;5.10;;
7795;SDS011;3942;51.518;6.912;2023-03-03T23:12:11;13.43;;;4.60;;
7795;SDS011;3942;51.518;6.912;2023-03-03T23:17:13;12.82;;;4.53;;
7795;SDS011;3942;51.518;6.912;2023-03-03T23:22:15;13.07;;;4.53;;
7795;SDS011;3942;51.518;6.912;2023-03-03T23:27:25;15.27;;;3.72;;
7795;SDS011;3942;51.518;6.912;2023-03-03T23:32:27;11.15;;;3.92;;
7795;SDS011;3942;51.518;6.912;2023-03-03T23:37:29;21.67;;;6.60;;
7795;SDS011;3942;51.518;6.912;2023-03-03T23:42:33;15.88;;;4.72;;
7795;SDS011;3942;51.518;6.912;2023-03-03T23:47:35;17.52;;;4.97;;
7795;SDS011;3942;51.518;6.912;2023-03-03T23:52:37;25.42;;;10.18;;
7795;SDS011;3942;51.518;6.912;2023-03-03T23:57:40;24.02;;;5.07;;
